createdAt,value
2022-11-17T00:00:53.823Z,5.17
2022-11-17T00:01:57.164Z,5.18
2022-11-17T00:03:00.242Z,5.17
2022-11-17T00:04:03.131Z,5.14
2022-11-17T00:05:06.144Z,5.13
2022-11-17T00:06:09.051Z,5.14
2022-11-17T00:07:12.235Z,5.12
2022-11-17T00:08:15.252Z,5.10
2022-11-17T00:09:18.380Z,5.12
2022-11-17T00:10:21.352Z,5.13
2022-11-17T00:11:24.228Z,5.13
2022-11-17T00:12:46.272Z,5.12
2022-11-17T00:14:07.905Z,5.15
2022-11-17T00:15:10.801Z,5.13
2022-11-17T00:16:15.055Z,5.09
2022-11-17T00:17:17.944Z,5.11
2022-11-17T00:18:39.601Z,5.12
2022-11-17T00:20:01.345Z,5.13
2022-11-17T00:21:20.014Z,5.14
2022-11-17T00:22:23.374Z,5.13
2022-11-17T00:23:46.891Z,5.15
2022-11-17T00:24:50.362Z,5.17
2022-11-17T00:25:53.207Z,5.17
2022-11-17T00:27:02.169Z,5.18
2022-11-17T00:28:04.989Z,5.20
2022-11-17T00:29:08.058Z,5.21
2022-11-17T00:30:31.159Z,5.23
2022-11-17T00:31:53.159Z,5.27
2022-11-17T00:33:19.149Z,5.30
2022-11-17T00:34:23.549Z,5.32
2022-11-17T00:35:26.474Z,5.32
2022-11-17T00:36:29.324Z,5.32
2022-11-17T00:37:39.734Z,5.22
2022-11-17T00:38:42.630Z,5.20
2022-11-17T00:39:45.733Z,5.22
2022-11-17T00:40:48.568Z,5.24
2022-11-17T00:41:51.458Z,5.26
2022-11-17T00:42:54.502Z,5.27
2022-11-17T00:43:57.399Z,5.29
2022-11-17T00:45:00.493Z,5.31
2022-11-17T00:46:03.310Z,5.32
2022-11-17T00:47:06.206Z,5.34
2022-11-17T00:48:09.139Z,5.35
2022-11-17T00:49:12.379Z,5.36
2022-11-17T00:50:15.652Z,5.37
2022-11-17T00:51:19.005Z,5.38
2022-11-17T00:52:21.873Z,5.38
2022-11-17T00:53:24.779Z,5.40
2022-11-17T00:54:27.656Z,5.41
2022-11-17T00:55:30.824Z,5.40
2022-11-17T00:56:34.159Z,5.40
2022-11-17T00:57:36.997Z,5.40
2022-11-17T00:58:39.860Z,5.41
2022-11-17T00:59:43.205Z,5.40
2022-11-17T01:00:48.450Z,5.40
2022-11-17T01:01:51.618Z,5.40
2022-11-17T01:02:54.630Z,5.40
2022-11-17T01:04:05.425Z,5.42
2022-11-17T01:05:08.400Z,5.43
2022-11-17T01:06:12.862Z,5.42
2022-11-17T01:07:16.130Z,5.40
2022-11-17T01:08:19.269Z,5.40
2022-11-17T01:09:23.697Z,5.39
2022-11-17T01:10:26.593Z,5.39
2022-11-17T01:11:29.671Z,5.39
2022-11-17T01:12:32.592Z,5.39
2022-11-17T01:13:36.072Z,5.39
2022-11-17T01:14:39.359Z,5.39
2022-11-17T01:15:42.284Z,5.39
2022-11-17T01:16:45.766Z,5.36
2022-11-17T01:17:48.735Z,5.32
2022-11-17T01:18:52.094Z,5.27
2022-11-17T01:20:07.785Z,5.26
2022-11-17T01:21:32.561Z,5.24
2022-11-17T01:22:57.072Z,5.19
2022-11-17T01:24:23.121Z,5.12
2022-11-17T01:25:50.264Z,5.16
2022-11-17T01:27:15.899Z,5.15
2022-11-17T01:28:40.651Z,5.15
2022-11-17T01:30:06.294Z,5.13
2022-11-17T01:31:30.277Z,5.15
2022-11-17T01:32:37.969Z,5.16
2022-11-17T01:33:40.645Z,5.17
2022-11-17T01:34:43.386Z,5.18
2022-11-17T01:35:46.120Z,5.19
2022-11-17T01:37:21.092Z,5.16
2022-11-17T01:38:41.493Z,5.15
2022-11-17T01:40:05.318Z,5.16
2022-11-17T01:41:28.417Z,5.16
2022-11-17T01:42:57.148Z,5.16
2022-11-17T01:44:38.427Z,5.12
2022-11-17T01:48:27.672Z,5.05
2022-11-17T01:49:34.842Z,5.04
2022-11-17T01:50:39.348Z,5.05
2022-11-17T01:51:47.431Z,5.04
2022-11-17T01:52:51.087Z,5.04
2022-11-17T01:53:59.015Z,5.03
2022-11-17T01:55:07.070Z,5.00
2022-11-17T01:58:44.103Z,4.97
2022-11-17T01:59:49.421Z,4.97
2022-11-17T02:00:54.429Z,4.99
2022-11-17T02:01:58.273Z,5.00
2022-11-17T02:03:01.751Z,5.01
2022-11-17T02:04:04.731Z,5.01
2022-11-17T02:05:19.471Z,5.01
2022-11-17T02:06:28.744Z,5.02
2022-11-17T02:07:54.874Z,5.04
2022-11-17T02:09:17.602Z,5.03
2022-11-17T02:10:39.744Z,5.00
2022-11-17T02:12:08.639Z,5.02
2022-11-17T02:13:35.973Z,5.04
2022-11-17T02:14:58.552Z,4.95
2022-11-17T02:16:30.189Z,4.95
2022-11-17T02:17:52.466Z,4.86
2022-11-17T02:19:15.620Z,4.77
2022-11-17T02:23:13.531Z,4.87
2022-11-17T02:24:31.418Z,4.89
2022-11-17T02:25:43.204Z,4.90
2022-11-17T02:26:46.141Z,4.88
2022-11-17T02:28:07.672Z,4.83
2022-11-17T02:29:20.341Z,4.87
2022-11-17T02:31:53.520Z,4.88
2022-11-17T02:33:06.943Z,4.89
2022-11-17T02:34:28.644Z,4.87
2022-11-17T02:35:46.958Z,4.89
2022-11-17T02:36:55.763Z,4.90
2022-11-17T02:38:07.140Z,4.87
2022-11-17T02:39:12.477Z,4.87
2022-11-17T02:40:21.315Z,4.84
2022-11-17T02:41:29.014Z,4.84
2022-11-17T02:43:01.254Z,4.84
2022-11-17T02:44:16.223Z,4.87
2022-11-17T02:45:22.509Z,4.84
2022-11-17T02:46:25.854Z,4.83
2022-11-17T02:47:32.392Z,4.85
2022-11-17T02:48:38.293Z,4.87
2022-11-17T02:49:44.402Z,4.84
2022-11-17T02:50:47.844Z,4.84
2022-11-17T02:51:52.513Z,4.87
2022-11-17T02:52:55.777Z,4.89
2022-11-17T02:54:00.249Z,4.91
2022-11-17T02:55:05.638Z,4.94
2022-11-17T02:56:08.909Z,4.96
2022-11-17T02:57:27.977Z,4.97
2022-11-17T02:58:31.058Z,4.99
2022-11-17T02:59:41.459Z,5.00
2022-11-17T03:00:52.959Z,5.00
2022-11-17T03:02:05.131Z,4.97
2022-11-17T03:03:26.906Z,4.98
2022-11-17T03:04:32.104Z,4.99
2022-11-17T03:06:00.089Z,5.01
2022-11-17T03:07:03.192Z,5.02
2022-11-17T03:08:27.511Z,5.03
2022-11-17T03:09:38.873Z,5.03
2022-11-17T03:10:44.488Z,5.05
2022-11-17T03:12:01.426Z,5.06
2022-11-17T03:13:10.603Z,5.08
2022-11-17T03:14:42.623Z,5.08
2022-11-17T03:15:58.953Z,5.11
2022-11-17T03:17:06.976Z,5.13
2022-11-17T03:18:16.250Z,5.14
2022-11-17T03:19:23.085Z,5.13
2022-11-17T03:20:34.049Z,5.12
2022-11-17T03:21:57.124Z,5.12
2022-11-17T03:23:02.938Z,5.13
2022-11-17T03:24:23.945Z,5.14
2022-11-17T03:25:28.560Z,5.08
2022-11-17T03:26:34.467Z,5.00
2022-11-17T03:27:39.685Z,5.01
2022-11-17T03:28:45.287Z,5.02
2022-11-17T03:29:50.537Z,5.04
2022-11-17T03:30:54.110Z,5.07
2022-11-17T03:31:59.078Z,5.09
2022-11-17T03:33:05.353Z,5.06
2022-11-17T03:34:13.223Z,5.02
2022-11-17T03:35:18.813Z,5.00
2022-11-17T03:36:26.171Z,5.01
2022-11-17T03:37:31.349Z,5.02
2022-11-17T03:38:37.502Z,5.04
2022-11-17T03:39:42.235Z,5.02
2022-11-17T03:40:46.752Z,5.03
2022-11-17T03:41:52.252Z,5.04
2022-11-17T03:42:57.098Z,5.03
2022-11-17T03:44:01.309Z,5.02
2022-11-17T03:45:13.472Z,5.04
2022-11-17T03:46:18.216Z,5.04
2022-11-17T03:47:24.419Z,5.07
2022-11-17T03:48:46.153Z,5.07
2022-11-17T03:49:52.205Z,5.07
2022-11-17T03:50:55.050Z,5.05
2022-11-17T03:51:58.052Z,5.07
2022-11-17T03:53:02.828Z,5.07
2022-11-17T03:54:06.524Z,5.04
2022-11-17T03:55:09.686Z,5.05
2022-11-17T03:56:21.559Z,5.06
2022-11-17T03:57:27.044Z,5.07
2022-11-17T03:58:31.411Z,5.02
2022-11-17T03:59:49.355Z,5.03
2022-11-17T04:00:53.497Z,5.03
2022-11-17T04:01:56.555Z,5.03
2022-11-17T04:02:59.734Z,5.03
2022-11-17T04:04:02.747Z,5.04
2022-11-17T04:05:05.932Z,5.03
2022-11-17T04:06:08.894Z,5.04
2022-11-17T04:07:11.761Z,5.02
2022-11-17T04:08:14.796Z,5.01
2022-11-17T04:09:22.871Z,5.01
2022-11-17T04:10:27.176Z,5.01
2022-11-17T04:11:49.251Z,5.00
2022-11-17T04:13:11.446Z,5.00
2022-11-17T04:14:33.102Z,4.99
2022-11-17T04:15:54.531Z,4.96
2022-11-17T04:16:57.548Z,4.98
2022-11-17T04:18:00.446Z,5.01
2022-11-17T04:19:03.356Z,5.01
2022-11-17T04:20:06.779Z,5.01
2022-11-17T04:21:09.677Z,5.02
2022-11-17T04:22:12.532Z,5.02
2022-11-17T04:23:15.468Z,5.03
2022-11-17T04:24:18.559Z,5.06
2022-11-17T04:25:41.548Z,5.07
2022-11-17T04:27:02.753Z,5.05
2022-11-17T04:28:24.200Z,5.04
2022-11-17T04:29:28.470Z,5.00
2022-11-17T04:30:31.480Z,4.96
2022-11-17T04:31:34.379Z,4.91
2022-11-17T04:32:37.275Z,4.90
2022-11-17T04:33:46.395Z,4.88
2022-11-17T04:34:49.415Z,4.86
2022-11-17T04:35:52.414Z,4.87
2022-11-17T04:36:55.289Z,4.88
2022-11-17T04:37:58.277Z,4.89
2022-11-17T04:39:01.321Z,4.91
2022-11-17T04:40:04.493Z,4.92
2022-11-17T04:41:27.291Z,4.91
2022-11-17T04:42:30.306Z,4.92
2022-11-17T04:43:33.527Z,4.94
2022-11-17T04:44:36.667Z,4.91
2022-11-17T04:45:39.593Z,4.89
2022-11-17T04:46:44.623Z,4.85
2022-11-17T04:47:47.635Z,4.86
2022-11-17T04:48:52.002Z,4.85
2022-11-17T04:49:54.934Z,4.86
2022-11-17T04:50:57.837Z,4.85
2022-11-17T04:52:01.208Z,4.83
2022-11-17T04:53:04.115Z,4.81
2022-11-17T04:54:07.740Z,4.81
2022-11-17T04:55:10.613Z,4.83
2022-11-17T04:56:13.608Z,4.83
2022-11-17T04:57:16.607Z,4.84
2022-11-17T04:58:19.445Z,4.83
2022-11-17T04:59:22.412Z,4.83
2022-11-17T05:00:25.536Z,4.83
2022-11-17T05:01:28.969Z,4.82
2022-11-17T05:02:32.078Z,4.82
2022-11-17T05:03:35.169Z,4.84
2022-11-17T05:04:56.245Z,4.85
2022-11-17T05:05:59.239Z,4.87
2022-11-17T05:07:02.291Z,4.86
2022-11-17T05:08:05.422Z,4.87
2022-11-17T05:09:11.367Z,4.87
2022-11-17T05:10:15.084Z,4.85
2022-11-17T05:11:36.653Z,4.81
2022-11-17T05:12:58.033Z,4.80
2022-11-17T05:14:01.459Z,4.77
2022-11-17T05:15:04.581Z,4.75
2022-11-17T05:16:26.060Z,4.70
2022-11-17T05:17:29.056Z,4.67
2022-11-17T05:18:31.903Z,4.63
2022-11-17T05:19:42.344Z,4.55
2022-11-17T05:20:45.279Z,4.54
2022-11-17T05:21:48.421Z,4.46
2022-11-17T05:23:10.077Z,4.44
2022-11-17T05:24:14.442Z,4.38
2022-11-17T05:25:17.421Z,4.34
2022-11-17T05:26:21.769Z,4.37
2022-11-17T05:27:26.194Z,4.37
2022-11-17T05:28:31.079Z,4.35
2022-11-17T05:29:34.068Z,4.37
2022-11-17T05:30:37.027Z,4.38
2022-11-17T05:31:40.059Z,4.39
2022-11-17T05:32:42.997Z,4.39
2022-11-17T05:33:46.027Z,4.40
2022-11-17T05:34:48.894Z,4.39
2022-11-17T05:35:51.915Z,4.38
2022-11-17T05:36:54.757Z,4.34
2022-11-17T05:37:57.565Z,4.36
2022-11-17T05:39:00.821Z,4.40
2022-11-17T05:40:04.025Z,4.42
2022-11-17T05:41:07.248Z,4.43
2022-11-17T05:42:10.442Z,4.44
2022-11-17T05:43:13.336Z,4.44
2022-11-17T05:44:16.272Z,4.42
2022-11-17T05:45:19.271Z,4.43
2022-11-17T05:46:23.052Z,4.44
2022-11-17T05:47:25.986Z,4.44
2022-11-17T05:48:28.998Z,4.43
2022-11-17T05:49:31.878Z,4.44
2022-11-17T05:50:35.879Z,4.46
2022-11-17T05:51:38.813Z,4.43
2022-11-17T05:52:41.614Z,4.38
2022-11-17T05:53:44.515Z,4.39
2022-11-17T05:54:47.418Z,4.39
2022-11-17T05:55:50.425Z,4.40
2022-11-17T05:56:56.712Z,4.41
2022-11-17T05:58:06.641Z,4.43
2022-11-17T05:59:09.451Z,4.45
2022-11-17T06:00:15.204Z,4.48
2022-11-17T06:01:19.221Z,4.50
2022-11-17T06:02:25.057Z,4.51
2022-11-17T06:03:37.529Z,4.51
2022-11-17T06:04:40.834Z,4.52
2022-11-17T06:05:44.264Z,4.51
2022-11-17T06:06:47.817Z,4.52
2022-11-17T06:07:51.597Z,4.52
2022-11-17T06:08:54.416Z,4.52
2022-11-17T06:09:57.400Z,4.53
2022-11-17T06:11:00.489Z,4.54
2022-11-17T06:12:06.169Z,4.55
2022-11-17T06:13:09.701Z,4.56
2022-11-17T06:14:12.591Z,4.57
2022-11-17T06:15:15.473Z,4.54
2022-11-17T06:16:20.708Z,4.57
2022-11-17T06:17:29.831Z,4.53
2022-11-17T06:18:41.589Z,4.54
2022-11-17T06:19:46.847Z,4.53
2022-11-17T06:20:52.197Z,4.55
2022-11-17T06:22:11.519Z,4.55
2022-11-17T06:23:16.109Z,4.58
2022-11-17T06:24:19.909Z,4.60
2022-11-17T06:25:23.115Z,4.58
2022-11-17T06:26:26.379Z,4.57
2022-11-17T06:27:30.693Z,4.55
2022-11-17T06:28:34.510Z,4.56
2022-11-17T06:29:43.684Z,4.56
2022-11-17T06:30:47.740Z,4.58
2022-11-17T06:31:50.730Z,4.58
